Pagrindinis puslapis
METAR-TAF:

METAR-TAF

Oro uostai :

Brindizis, Italija

platuma: 40-39N, ilguma: 017-57E, Aukštis: 15 m

Dabartinis oras

Ataskaita buvo paskelbta 39 minutes, ne 16:50 UTC
Vėjas 8 kt iš Pietų/Pietvakarių
Temperatūra 12°C
Drėgmė 67%
Slėgis 1005 hPa
Matomumas 10 km arba daugiau
nėra debesų žemiau 1500 m ir nėra kamuolinių lietaus debesų

METAR: LIBR 231650Z 21008KT CAVOK 12/06 Q1005

Laikas: 18:29 (17:29 UTC)

Prognozė

Ataskaita buvo paskelbta 6 valandos ir 29 minutes, ne 11:00 UTC
Prognozė galioja nuo 23 metu 12 UTC su 24 metu 12 UTC
Vėjas 18 kt iš Pietų/Pietvakarių su gūsio iki 28 kt
Matomumas 10 km arba daugiau
Išsisklaidę debesys ne aukštis 2000 ft
Laikinai
nuo 23 metu 12 UTC su 23 metu 16 UTC
Matomumas: 4000 m
perkūnija, lietus

TAF: LIBR 231100Z 2312/2412 20018G28KT 9999 SCT020 TEMPO 2312/2316 4000 TSRA

Orai ataskaitas ir orų prognozės (METAR, TAF).

turimą stotys yra geltonos ir raudonos taškus žemėlapyje.

Perkelti pele per norėdami pamatyti stoties vardą.

Tada spustelėkite, norėdami matyti oro stebėjimo ir prognozės.

Norėdami pakeisti žemėlapį: spustelėkite ant žalios mygtukų su juodo kryžiaus žemyn,; žalią mygtuką su brūkšneliu, jei norite nutolinti; arba žalių rodyklių gretimoms žemėlapius.


METAR-TAF: